Terminal Aerodrome Forecast
Issued by NWS Boston, MA

Home | Current Version | Previous Version | Text Only | Print | Product List | Glossary On
Versions: 1 2 3 4 5 6 7 8 9 10 11 12 13 14 15 16 17 18 19 20 21 22 23 24 25 26 27 28 29 30 31 32 33 34 35
000
FTUS41 KBOX 011120
TAFORH
TAF
KORH 011120Z 0112/0212 26005KT P6SM FEW060
     FM011400 24007KT P6SM VCSH SCT080
     FM011700 24012KT P6SM VCSH BKN060
     FM012100 28012KT P6SM VCSH SCT060 BKN200
     FM012300 28009KT P6SM FEW060 SCT250=

USA.gov is the U.S. government's official web portal to all federal, state and local government web resources and services.